sensor_id;sensor_type;location;lat;lon;timestamp;P1;durP1;ratioP1;P2;durP2;ratioP2
18082;SDS011;9168;51.194;6.840;2022-11-20T00:01:11;27.70;;;16.27;;
18082;SDS011;9168;51.194;6.840;2022-11-20T00:03:39;28.05;;;16.25;;
18082;SDS011;9168;51.194;6.840;2022-11-20T00:06:08;29.73;;;16.67;;
18082;SDS011;9168;51.194;6.840;2022-11-20T00:08:37;34.87;;;17.83;;
18082;SDS011;9168;51.194;6.840;2022-11-20T00:11:04;33.78;;;18.48;;
18082;SDS011;9168;51.194;6.840;2022-11-20T00:13:31;31.23;;;17.63;;
18082;SDS011;9168;51.194;6.840;2022-11-20T00:15:58;33.28;;;18.30;;
18082;SDS011;9168;51.194;6.840;2022-11-20T00:18:26;32.13;;;17.17;;
18082;SDS011;9168;51.194;6.840;2022-11-20T00:20:59;39.07;;;19.73;;
18082;SDS011;9168;51.194;6.840;2022-11-20T00:23:28;33.87;;;18.20;;
18082;SDS011;9168;51.194;6.840;2022-11-20T00:25:55;36.07;;;18.20;;
18082;SDS011;9168;51.194;6.840;2022-11-20T00:28:22;33.70;;;18.60;;
18082;SDS011;9168;51.194;6.840;2022-11-20T00:30:49;33.93;;;18.67;;
18082;SDS011;9168;51.194;6.840;2022-11-20T00:33:16;31.75;;;18.63;;
18082;SDS011;9168;51.194;6.840;2022-11-20T00:35:42;33.63;;;18.37;;
18082;SDS011;9168;51.194;6.840;2022-11-20T00:38:09;39.00;;;18.00;;
18082;SDS011;9168;51.194;6.840;2022-11-20T00:40:37;30.70;;;16.73;;
18082;SDS011;9168;51.194;6.840;2022-11-20T00:43:04;29.53;;;17.27;;
18082;SDS011;9168;51.194;6.840;2022-11-20T00:45:31;33.53;;;19.00;;
18082;SDS011;9168;51.194;6.840;2022-11-20T00:47:58;33.37;;;17.97;;
18082;SDS011;9168;51.194;6.840;2022-11-20T00:50:25;34.25;;;17.52;;
18082;SDS011;9168;51.194;6.840;2022-11-20T00:52:52;37.65;;;19.90;;
18082;SDS011;9168;51.194;6.840;2022-11-20T00:55:18;37.60;;;19.08;;
18082;SDS011;9168;51.194;6.840;2022-11-20T00:57:46;36.70;;;19.23;;
18082;SDS011;9168;51.194;6.840;2022-11-20T01:00:14;32.80;;;18.67;;
18082;SDS011;9168;51.194;6.840;2022-11-20T01:02:41;36.00;;;19.00;;
18082;SDS011;9168;51.194;6.840;2022-11-20T01:05:08;35.17;;;18.10;;
18082;SDS011;9168;51.194;6.840;2022-11-20T01:07:34;36.22;;;19.42;;
18082;SDS011;9168;51.194;6.840;2022-11-20T01:10:01;34.20;;;18.90;;
18082;SDS011;9168;51.194;6.840;2022-11-20T01:12:28;35.53;;;19.37;;
18082;SDS011;9168;51.194;6.840;2022-11-20T01:14:57;34.78;;;19.08;;
18082;SDS011;9168;51.194;6.840;2022-11-20T01:17:23;36.80;;;18.67;;
18082;SDS011;9168;51.194;6.840;2022-11-20T01:19:50;36.20;;;18.27;;
18082;SDS011;9168;51.194;6.840;2022-11-20T01:22:17;36.40;;;18.87;;
18082;SDS011;9168;51.194;6.840;2022-11-20T01:24:44;33.27;;;17.70;;
18082;SDS011;9168;51.194;6.840;2022-11-20T01:27:11;40.70;;;19.27;;
18082;SDS011;9168;51.194;6.840;2022-11-20T01:29:38;33.75;;;18.15;;
18082;SDS011;9168;51.194;6.840;2022-11-20T01:32:06;29.13;;;17.33;;
18082;SDS011;9168;51.194;6.840;2022-11-20T01:34:33;35.37;;;18.07;;
18082;SDS011;9168;51.194;6.840;2022-11-20T01:36:59;36.73;;;19.67;;
18082;SDS011;9168;51.194;6.840;2022-11-20T01:39:26;35.13;;;19.20;;
18082;SDS011;9168;51.194;6.840;2022-11-20T01:41:54;34.50;;;19.17;;
18082;SDS011;9168;51.194;6.840;2022-11-20T01:44:44;41.77;;;19.77;;
18082;SDS011;9168;51.194;6.840;2022-11-20T01:47:19;34.93;;;18.50;;
18082;SDS011;9168;51.194;6.840;2022-11-20T01:49:50;35.40;;;18.73;;
18082;SDS011;9168;51.194;6.840;2022-11-20T01:52:23;32.03;;;18.17;;
18082;SDS011;9168;51.194;6.840;2022-11-20T01:54:54;35.80;;;19.25;;
18082;SDS011;9168;51.194;6.840;2022-11-20T01:57:25;31.63;;;17.73;;
18082;SDS011;9168;51.194;6.840;2022-11-20T01:59:56;34.67;;;19.33;;
18082;SDS011;9168;51.194;6.840;2022-11-20T02:02:27;32.93;;;18.77;;
18082;SDS011;9168;51.194;6.840;2022-11-20T02:04:55;32.53;;;17.50;;
18082;SDS011;9168;51.194;6.840;2022-11-20T02:07:27;34.13;;;18.70;;
18082;SDS011;9168;51.194;6.840;2022-11-20T02:09:54;34.07;;;19.33;;
18082;SDS011;9168;51.194;6.840;2022-11-20T02:12:21;33.70;;;18.43;;
18082;SDS011;9168;51.194;6.840;2022-11-20T02:15:05;33.03;;;18.20;;
18082;SDS011;9168;51.194;6.840;2022-11-20T02:17:34;34.53;;;18.33;;
18082;SDS011;9168;51.194;6.840;2022-11-20T02:20:01;32.93;;;18.43;;
18082;SDS011;9168;51.194;6.840;2022-11-20T02:22:31;32.57;;;17.20;;
18082;SDS011;9168;51.194;6.840;2022-11-20T02:25:03;33.25;;;17.13;;
18082;SDS011;9168;51.194;6.840;2022-11-20T02:27:31;35.80;;;17.40;;
18082;SDS011;9168;51.194;6.840;2022-11-20T02:29:59;31.67;;;17.20;;
18082;SDS011;9168;51.194;6.840;2022-11-20T02:32:28;31.35;;;17.55;;
18082;SDS011;9168;51.194;6.840;2022-11-20T02:34:57;31.23;;;17.03;;
18082;SDS011;9168;51.194;6.840;2022-11-20T02:37:26;32.77;;;18.17;;
18082;SDS011;9168;51.194;6.840;2022-11-20T02:39:58;33.43;;;17.03;;
18082;SDS011;9168;51.194;6.840;2022-11-20T02:42:26;29.50;;;17.25;;
18082;SDS011;9168;51.194;6.840;2022-11-20T02:44:53;30.33;;;17.20;;
18082;SDS011;9168;51.194;6.840;2022-11-20T02:47:20;28.57;;;16.73;;
18082;SDS011;9168;51.194;6.840;2022-11-20T02:49:47;32.97;;;17.03;;
18082;SDS011;9168;51.194;6.840;2022-11-20T02:52:14;33.50;;;17.10;;
18082;SDS011;9168;51.194;6.840;2022-11-20T02:54:41;31.63;;;16.90;;
18082;SDS011;9168;51.194;6.840;2022-11-20T02:57:08;28.90;;;16.50;;
18082;SDS011;9168;51.194;6.840;2022-11-20T02:59:36;30.57;;;16.50;;
18082;SDS011;9168;51.194;6.840;2022-11-20T03:02:03;34.73;;;17.53;;
18082;SDS011;9168;51.194;6.840;2022-11-20T03:04:30;30.17;;;16.80;;
18082;SDS011;9168;51.194;6.840;2022-11-20T03:06:56;31.37;;;17.23;;
18082;SDS011;9168;51.194;6.840;2022-11-20T03:09:23;30.07;;;16.80;;
18082;SDS011;9168;51.194;6.840;2022-11-20T03:11:50;32.97;;;17.60;;
18082;SDS011;9168;51.194;6.840;2022-11-20T03:14:17;30.95;;;17.25;;
18082;SDS011;9168;51.194;6.840;2022-11-20T03:16:45;32.93;;;17.63;;
18082;SDS011;9168;51.194;6.840;2022-11-20T03:19:12;30.80;;;18.27;;
18082;SDS011;9168;51.194;6.840;2022-11-20T03:21:39;31.03;;;17.17;;
18082;SDS011;9168;51.194;6.840;2022-11-20T03:24:06;31.30;;;17.30;;
18082;SDS011;9168;51.194;6.840;2022-11-20T03:26:33;32.40;;;17.70;;
18082;SDS011;9168;51.194;6.840;2022-11-20T03:29:01;35.67;;;17.23;;
18082;SDS011;9168;51.194;6.840;2022-11-20T03:31:30;32.07;;;17.03;;
18082;SDS011;9168;51.194;6.840;2022-11-20T03:33:59;29.77;;;16.47;;
18082;SDS011;9168;51.194;6.840;2022-11-20T03:36:27;29.00;;;16.23;;
18082;SDS011;9168;51.194;6.840;2022-11-20T03:38:55;32.00;;;16.77;;
18082;SDS011;9168;51.194;6.840;2022-11-20T03:41:23;31.97;;;16.23;;
18082;SDS011;9168;51.194;6.840;2022-11-20T03:43:52;30.53;;;16.67;;
18082;SDS011;9168;51.194;6.840;2022-11-20T03:46:20;34.00;;;16.43;;
18082;SDS011;9168;51.194;6.840;2022-11-20T03:48:47;30.67;;;17.00;;
18082;SDS011;9168;51.194;6.840;2022-11-20T03:51:17;33.27;;;17.33;;
18082;SDS011;9168;51.194;6.840;2022-11-20T03:53:46;28.47;;;16.23;;
18082;SDS011;9168;51.194;6.840;2022-11-20T03:56:15;30.17;;;16.27;;
18082;SDS011;9168;51.194;6.840;2022-11-20T03:58:44;27.90;;;16.33;;
18082;SDS011;9168;51.194;6.840;2022-11-20T04:01:12;32.50;;;17.30;;
18082;SDS011;9168;51.194;6.840;2022-11-20T04:03:42;29.63;;;17.00;;
18082;SDS011;9168;51.194;6.840;2022-11-20T04:06:10;29.30;;;16.13;;
18082;SDS011;9168;51.194;6.840;2022-11-20T04:08:41;29.17;;;16.67;;
18082;SDS011;9168;51.194;6.840;2022-11-20T04:11:08;33.63;;;16.90;;
18082;SDS011;9168;51.194;6.840;2022-11-20T04:13:36;30.83;;;17.57;;
18082;SDS011;9168;51.194;6.840;2022-11-20T04:16:03;29.63;;;16.77;;
18082;SDS011;9168;51.194;6.840;2022-11-20T04:18:30;27.20;;;16.00;;
18082;SDS011;9168;51.194;6.840;2022-11-20T04:20:58;29.43;;;16.47;;
18082;SDS011;9168;51.194;6.840;2022-11-20T04:23:25;29.57;;;17.23;;
18082;SDS011;9168;51.194;6.840;2022-11-20T04:25:54;30.57;;;15.90;;
18082;SDS011;9168;51.194;6.840;2022-11-20T04:28:21;27.73;;;15.57;;
18082;SDS011;9168;51.194;6.840;2022-11-20T04:30:47;33.33;;;17.20;;
18082;SDS011;9168;51.194;6.840;2022-11-20T04:33:14;29.53;;;16.37;;
18082;SDS011;9168;51.194;6.840;2022-11-20T04:35:41;28.17;;;15.57;;
18082;SDS011;9168;51.194;6.840;2022-11-20T04:38:09;26.83;;;15.43;;
18082;SDS011;9168;51.194;6.840;2022-11-20T04:40:35;32.60;;;15.97;;
18082;SDS011;9168;51.194;6.840;2022-11-20T04:43:04;28.93;;;16.33;;
18082;SDS011;9168;51.194;6.840;2022-11-20T04:45:30;26.93;;;15.83;;
18082;SDS011;9168;51.194;6.840;2022-11-20T04:47:57;32.43;;;16.23;;
18082;SDS011;9168;51.194;6.840;2022-11-20T04:50:24;28.37;;;16.07;;
18082;SDS011;9168;51.194;6.840;2022-11-20T04:52:51;31.73;;;15.37;;
18082;SDS011;9168;51.194;6.840;2022-11-20T04:55:18;29.10;;;16.23;;
18082;SDS011;9168;51.194;6.840;2022-11-20T04:57:45;30.80;;;16.67;;
18082;SDS011;9168;51.194;6.840;2022-11-20T05:00:17;29.17;;;16.45;;
18082;SDS011;9168;51.194;6.840;2022-11-20T05:02:44;32.20;;;17.27;;
18082;SDS011;9168;51.194;6.840;2022-11-20T05:05:11;30.47;;;16.40;;
18082;SDS011;9168;51.194;6.840;2022-11-20T05:07:37;31.33;;;16.77;;
18082;SDS011;9168;51.194;6.840;2022-11-20T05:10:05;30.20;;;17.10;;
18082;SDS011;9168;51.194;6.840;2022-11-20T05:12:32;30.10;;;16.60;;
18082;SDS011;9168;51.194;6.840;2022-11-20T05:14:59;33.55;;;17.58;;
18082;SDS011;9168;51.194;6.840;2022-11-20T05:17:27;30.23;;;17.55;;
18082;SDS011;9168;51.194;6.840;2022-11-20T05:19:54;33.47;;;17.23;;
18082;SDS011;9168;51.194;6.840;2022-11-20T05:22:21;32.50;;;16.15;;
18082;SDS011;9168;51.194;6.840;2022-11-20T05:24:48;33.93;;;17.63;;
18082;SDS011;9168;51.194;6.840;2022-11-20T05:27:15;32.53;;;17.73;;
18082;SDS011;9168;51.194;6.840;2022-11-20T05:29:42;31.00;;;17.00;;
18082;SDS011;9168;51.194;6.840;2022-11-20T05:32:09;32.93;;;17.00;;
18082;SDS011;9168;51.194;6.840;2022-11-20T05:34:37;31.23;;;16.63;;
18082;SDS011;9168;51.194;6.840;2022-11-20T05:37:04;30.97;;;16.73;;
18082;SDS011;9168;51.194;6.840;2022-11-20T05:39:30;31.83;;;18.08;;
18082;SDS011;9168;51.194;6.840;2022-11-20T05:41:57;34.27;;;17.90;;
18082;SDS011;9168;51.194;6.840;2022-11-20T05:44:38;34.80;;;18.93;;
18082;SDS011;9168;51.194;6.840;2022-11-20T05:47:05;32.13;;;17.07;;
18082;SDS011;9168;51.194;6.840;2022-11-20T05:49:32;34.77;;;18.20;;
18082;SDS011;9168;51.194;6.840;2022-11-20T05:52:00;31.53;;;17.17;;
18082;SDS011;9168;51.194;6.840;2022-11-20T05:54:27;33.90;;;19.20;;
18082;SDS011;9168;51.194;6.840;2022-11-20T05:56:54;33.37;;;17.10;;
18082;SDS011;9168;51.194;6.840;2022-11-20T05:59:21;33.33;;;18.43;;
18082;SDS011;9168;51.194;6.840;2022-11-20T06:01:48;32.77;;;18.87;;
18082;SDS011;9168;51.194;6.840;2022-11-20T06:04:15;37.57;;;18.60;;
18082;SDS011;9168;51.194;6.840;2022-11-20T06:06:41;33.77;;;18.53;;
18082;SDS011;9168;51.194;6.840;2022-11-20T06:09:10;32.10;;;17.67;;
18082;SDS011;9168;51.194;6.840;2022-11-20T06:11:36;34.37;;;17.33;;
18082;SDS011;9168;51.194;6.840;2022-11-20T06:14:03;35.47;;;18.50;;
18082;SDS011;9168;51.194;6.840;2022-11-20T06:16:30;32.40;;;17.40;;
18082;SDS011;9168;51.194;6.840;2022-11-20T06:18:57;36.33;;;17.20;;
18082;SDS011;9168;51.194;6.840;2022-11-20T06:21:24;30.97;;;17.73;;
18082;SDS011;9168;51.194;6.840;2022-11-20T06:23:51;32.73;;;17.37;;
18082;SDS011;9168;51.194;6.840;2022-11-20T06:26:21;38.57;;;19.27;;
18082;SDS011;9168;51.194;6.840;2022-11-20T06:28:49;31.33;;;17.43;;
18082;SDS011;9168;51.194;6.840;2022-11-20T06:31:17;33.07;;;17.80;;
18082;SDS011;9168;51.194;6.840;2022-11-20T06:33:45;32.00;;;18.10;;
18082;SDS011;9168;51.194;6.840;2022-11-20T06:36:14;31.60;;;17.73;;
18082;SDS011;9168;51.194;6.840;2022-11-20T06:38:42;31.03;;;17.13;;
18082;SDS011;9168;51.194;6.840;2022-11-20T06:41:10;32.30;;;18.47;;
18082;SDS011;9168;51.194;6.840;2022-11-20T06:43:40;29.60;;;16.60;;
18082;SDS011;9168;51.194;6.840;2022-11-20T06:46:08;35.17;;;17.38;;
18082;SDS011;9168;51.194;6.840;2022-11-20T06:48:36;30.03;;;17.47;;
18082;SDS011;9168;51.194;6.840;2022-11-20T06:51:03;37.23;;;17.80;;
18082;SDS011;9168;51.194;6.840;2022-11-20T06:53:30;30.57;;;16.77;;
18082;SDS011;9168;51.194;6.840;2022-11-20T06:55:57;34.97;;;18.50;;
18082;SDS011;9168;51.194;6.840;2022-11-20T06:58:26;30.40;;;16.97;;
18082;SDS011;9168;51.194;6.840;2022-11-20T07:00:54;32.73;;;17.53;;
18082;SDS011;9168;51.194;6.840;2022-11-20T07:03:24;29.80;;;16.57;;
18082;SDS011;9168;51.194;6.840;2022-11-20T07:05:51;31.67;;;18.00;;
18082;SDS011;9168;51.194;6.840;2022-11-20T07:08:20;31.23;;;16.57;;
18082;SDS011;9168;51.194;6.840;2022-11-20T07:10:46;31.00;;;17.23;;
18082;SDS011;9168;51.194;6.840;2022-11-20T07:13:13;33.83;;;16.90;;
18082;SDS011;9168;51.194;6.840;2022-11-20T07:15:40;31.13;;;17.40;;
18082;SDS011;9168;51.194;6.840;2022-11-20T07:18:08;32.17;;;18.33;;
18082;SDS011;9168;51.194;6.840;2022-11-20T07:20:36;40.20;;;18.77;;
18082;SDS011;9168;51.194;6.840;2022-11-20T07:23:03;35.57;;;18.53;;
18082;SDS011;9168;51.194;6.840;2022-11-20T07:25:29;30.50;;;18.10;;
18082;SDS011;9168;51.194;6.840;2022-11-20T07:27:56;32.53;;;17.50;;
18082;SDS011;9168;51.194;6.840;2022-11-20T07:30:24;35.40;;;18.40;;
18082;SDS011;9168;51.194;6.840;2022-11-20T07:32:51;30.33;;;17.33;;
18082;SDS011;9168;51.194;6.840;2022-11-20T07:35:19;33.50;;;16.90;;
18082;SDS011;9168;51.194;6.840;2022-11-20T07:37:47;32.90;;;16.97;;
18082;SDS011;9168;51.194;6.840;2022-11-20T07:40:14;35.07;;;18.27;;
18082;SDS011;9168;51.194;6.840;2022-11-20T07:42:46;33.77;;;17.60;;
18082;SDS011;9168;51.194;6.840;2022-11-20T07:45:15;36.77;;;17.97;;
18082;SDS011;9168;51.194;6.840;2022-11-20T07:47:41;34.50;;;18.37;;
18082;SDS011;9168;51.194;6.840;2022-11-20T07:50:09;38.70;;;18.60;;
18082;SDS011;9168;51.194;6.840;2022-11-20T07:52:37;33.00;;;18.57;;
18082;SDS011;9168;51.194;6.840;2022-11-20T07:55:04;34.80;;;17.80;;
18082;SDS011;9168;51.194;6.840;2022-11-20T07:57:32;31.43;;;17.40;;
18082;SDS011;9168;51.194;6.840;2022-11-20T07:59:59;35.57;;;18.30;;
18082;SDS011;9168;51.194;6.840;2022-11-20T08:02:26;33.40;;;18.47;;
18082;SDS011;9168;51.194;6.840;2022-11-20T08:04:53;37.37;;;20.20;;
18082;SDS011;9168;51.194;6.840;2022-11-20T08:07:20;33.37;;;18.10;;
18082;SDS011;9168;51.194;6.840;2022-11-20T08:09:48;32.27;;;17.43;;
18082;SDS011;9168;51.194;6.840;2022-11-20T08:12:16;33.47;;;18.03;;
18082;SDS011;9168;51.194;6.840;2022-11-20T08:15:02;40.03;;;18.97;;
18082;SDS011;9168;51.194;6.840;2022-11-20T08:17:30;38.97;;;18.87;;
18082;SDS011;9168;51.194;6.840;2022-11-20T08:19:57;39.37;;;19.60;;
18082;SDS011;9168;51.194;6.840;2022-11-20T08:22:24;36.50;;;18.83;;
18082;SDS011;9168;51.194;6.840;2022-11-20T08:24:52;35.00;;;19.40;;
18082;SDS011;9168;51.194;6.840;2022-11-20T08:27:19;33.17;;;17.90;;
18082;SDS011;9168;51.194;6.840;2022-11-20T08:29:46;36.47;;;20.83;;
18082;SDS011;9168;51.194;6.840;2022-11-20T08:32:13;34.03;;;19.57;;
18082;SDS011;9168;51.194;6.840;2022-11-20T08:34:40;39.40;;;20.50;;
18082;SDS011;9168;51.194;6.840;2022-11-20T08:37:07;36.17;;;19.63;;
18082;SDS011;9168;51.194;6.840;2022-11-20T08:39:33;35.30;;;19.43;;
18082;SDS011;9168;51.194;6.840;2022-11-20T08:42:02;35.60;;;18.70;;
18082;SDS011;9168;51.194;6.840;2022-11-20T08:44:32;37.77;;;18.37;;
18082;SDS011;9168;51.194;6.840;2022-11-20T08:46:59;34.80;;;19.33;;
18082;SDS011;9168;51.194;6.840;2022-11-20T08:49:26;30.50;;;18.20;;
18082;SDS011;9168;51.194;6.840;2022-11-20T08:51:53;31.70;;;18.40;;
18082;SDS011;9168;51.194;6.840;2022-11-20T08:54:20;31.20;;;17.90;;
18082;SDS011;9168;51.194;6.840;2022-11-20T08:56:47;29.97;;;16.47;;
18082;SDS011;9168;51.194;6.840;2022-11-20T08:59:15;34.50;;;18.30;;
18082;SDS011;9168;51.194;6.840;2022-11-20T09:01:42;31.37;;;18.03;;
18082;SDS011;9168;51.194;6.840;2022-11-20T09:04:09;33.10;;;17.27;;
18082;SDS011;9168;51.194;6.840;2022-11-20T09:06:36;30.50;;;16.70;;
18082;SDS011;9168;51.194;6.840;2022-11-20T09:09:03;33.73;;;18.33;;
18082;SDS011;9168;51.194;6.840;2022-11-20T09:11:30;31.83;;;17.67;;
18082;SDS011;9168;51.194;6.840;2022-11-20T09:13:57;31.00;;;17.77;;
18082;SDS011;9168;51.194;6.840;2022-11-20T09:16:26;35.33;;;16.77;;
18082;SDS011;9168;51.194;6.840;2022-11-20T09:18:53;33.33;;;17.90;;
18082;SDS011;9168;51.194;6.840;2022-11-20T09:21:20;35.07;;;18.50;;
18082;SDS011;9168;51.194;6.840;2022-11-20T09:23:47;33.03;;;17.53;;
18082;SDS011;9168;51.194;6.840;2022-11-20T09:26:14;32.80;;;18.63;;
18082;SDS011;9168;51.194;6.840;2022-11-20T09:28:41;31.10;;;17.73;;
18082;SDS011;9168;51.194;6.840;2022-11-20T09:31:09;31.50;;;17.47;;
18082;SDS011;9168;51.194;6.840;2022-11-20T09:33:43;31.77;;;16.90;;
18082;SDS011;9168;51.194;6.840;2022-11-20T09:36:09;27.20;;;15.30;;
18082;SDS011;9168;51.194;6.840;2022-11-20T09:38:36;29.13;;;16.60;;
18082;SDS011;9168;51.194;6.840;2022-11-20T09:41:04;30.40;;;16.03;;
18082;SDS011;9168;51.194;6.840;2022-11-20T09:43:53;29.33;;;16.17;;
18082;SDS011;9168;51.194;6.840;2022-11-20T09:46:28;30.60;;;16.83;;
18082;SDS011;9168;51.194;6.840;2022-11-20T09:49:06;31.50;;;17.77;;
18082;SDS011;9168;51.194;6.840;2022-11-20T09:51:57;29.50;;;15.97;;
18082;SDS011;9168;51.194;6.840;2022-11-20T09:54:27;27.37;;;15.33;;
18082;SDS011;9168;51.194;6.840;2022-11-20T09:56:58;30.70;;;16.03;;
18082;SDS011;9168;51.194;6.840;2022-11-20T09:59:30;29.80;;;16.17;;
18082;SDS011;9168;51.194;6.840;2022-11-20T10:02:01;27.60;;;15.53;;
18082;SDS011;9168;51.194;6.840;2022-11-20T10:04:39;30.87;;;15.60;;
18082;SDS011;9168;51.194;6.840;2022-11-20T10:07:15;32.27;;;17.20;;
18082;SDS011;9168;51.194;6.840;2022-11-20T10:09:48;34.50;;;17.33;;
18082;SDS011;9168;51.194;6.840;2022-11-20T10:12:18;30.07;;;16.03;;
18082;SDS011;9168;51.194;6.840;2022-11-20T10:14:56;28.08;;;15.57;;
18082;SDS011;9168;51.194;6.840;2022-11-20T10:17:36;29.53;;;16.07;;
18082;SDS011;9168;51.194;6.840;2022-11-20T10:20:23;29.27;;;15.97;;
18082;SDS011;9168;51.194;6.840;2022-11-20T10:23:04;30.10;;;16.47;;
18082;SDS011;9168;51.194;6.840;2022-11-20T10:25:50;31.43;;;16.60;;
18082;SDS011;9168;51.194;6.840;2022-11-20T10:28:25;37.70;;;17.83;;
18082;SDS011;9168;51.194;6.840;2022-11-20T10:31:02;30.00;;;16.73;;
18082;SDS011;9168;51.194;6.840;2022-11-20T10:33:34;31.20;;;17.00;;
18082;SDS011;9168;51.194;6.840;2022-11-20T10:36:08;30.87;;;17.23;;
18082;SDS011;9168;51.194;6.840;2022-11-20T10:38:43;35.30;;;17.67;;
18082;SDS011;9168;51.194;6.840;2022-11-20T10:41:16;31.93;;;17.23;;
18082;SDS011;9168;51.194;6.840;2022-11-20T10:43:52;28.47;;;16.83;;
18082;SDS011;9168;51.194;6.840;2022-11-20T10:46:26;32.97;;;16.80;;
18082;SDS011;9168;51.194;6.840;2022-11-20T10:49:02;27.47;;;16.17;;
18082;SDS011;9168;51.194;6.840;2022-11-20T10:51:39;28.33;;;15.77;;
18082;SDS011;9168;51.194;6.840;2022-11-20T10:54:17;27.63;;;16.57;;
18082;SDS011;9168;51.194;6.840;2022-11-20T10:56:50;29.33;;;17.03;;
18082;SDS011;9168;51.194;6.840;2022-11-20T10:59:24;28.90;;;15.60;;
18082;SDS011;9168;51.194;6.840;2022-11-20T11:02:00;28.98;;;16.40;;
18082;SDS011;9168;51.194;6.840;2022-11-20T11:04:30;31.27;;;15.57;;
18082;SDS011;9168;51.194;6.840;2022-11-20T11:07:07;31.47;;;16.43;;
18082;SDS011;9168;51.194;6.840;2022-11-20T11:09:39;32.93;;;17.67;;
18082;SDS011;9168;51.194;6.840;2022-11-20T11:12:09;27.57;;;15.70;;
18082;SDS011;9168;51.194;6.840;2022-11-20T11:14:47;30.33;;;17.13;;
18082;SDS011;9168;51.194;6.840;2022-11-20T11:17:20;34.07;;;17.47;;
18082;SDS011;9168;51.194;6.840;2022-11-20T11:19:58;27.67;;;16.03;;
18082;SDS011;9168;51.194;6.840;2022-11-20T11:22:35;33.28;;;17.00;;
18082;SDS011;9168;51.194;6.840;2022-11-20T11:25:12;32.83;;;17.23;;
18082;SDS011;9168;51.194;6.840;2022-11-20T11:27:46;30.67;;;16.67;;
18082;SDS011;9168;51.194;6.840;2022-11-20T11:30:14;31.23;;;16.77;;
18082;SDS011;9168;51.194;6.840;2022-11-20T11:32:42;33.28;;;16.95;;
18082;SDS011;9168;51.194;6.840;2022-11-20T11:35:20;28.17;;;17.03;;
18082;SDS011;9168;51.194;6.840;2022-11-20T11:37:50;30.33;;;17.17;;
18082;SDS011;9168;51.194;6.840;2022-11-20T11:40:19;28.30;;;16.17;;
18082;SDS011;9168;51.194;6.840;2022-11-20T11:42:50;28.77;;;17.10;;
18082;SDS011;9168;51.194;6.840;2022-11-20T11:45:22;29.70;;;17.25;;
18082;SDS011;9168;51.194;6.840;2022-11-20T11:47:49;31.17;;;17.27;;
18082;SDS011;9168;51.194;6.840;2022-11-20T11:50:19;31.40;;;16.97;;
18082;SDS011;9168;51.194;6.840;2022-11-20T11:52:51;30.83;;;16.53;;
18082;SDS011;9168;51.194;6.840;2022-11-20T11:55:26;29.20;;;16.87;;
18082;SDS011;9168;51.194;6.840;2022-11-20T11:57:59;37.60;;;17.93;;
18082;SDS011;9168;51.194;6.840;2022-11-20T12:00:37;32.10;;;17.97;;
18082;SDS011;9168;51.194;6.840;2022-11-20T12:03:09;31.80;;;17.48;;
18082;SDS011;9168;51.194;6.840;2022-11-20T12:05:42;34.17;;;16.98;;
18082;SDS011;9168;51.194;6.840;2022-11-20T12:08:14;31.83;;;17.47;;
18082;SDS011;9168;51.194;6.840;2022-11-20T12:10:48;30.80;;;17.43;;
18082;SDS011;9168;51.194;6.840;2022-11-20T12:13:30;34.97;;;18.35;;
18082;SDS011;9168;51.194;6.840;2022-11-20T12:16:07;31.50;;;17.47;;
18082;SDS011;9168;51.194;6.840;2022-11-20T12:18:39;34.33;;;17.80;;
18082;SDS011;9168;51.194;6.840;2022-11-20T12:21:11;32.55;;;17.90;;
18082;SDS011;9168;51.194;6.840;2022-11-20T12:23:49;29.87;;;16.57;;
18082;SDS011;9168;51.194;6.840;2022-11-20T12:26:29;33.83;;;18.15;;
18082;SDS011;9168;51.194;6.840;2022-11-20T12:29:06;35.03;;;19.50;;
18082;SDS011;9168;51.194;6.840;2022-11-20T12:31:42;37.03;;;20.00;;
18082;SDS011;9168;51.194;6.840;2022-11-20T12:34:22;38.37;;;20.40;;
18082;SDS011;9168;51.194;6.840;2022-11-20T12:37:08;54.93;;;22.00;;
18082;SDS011;9168;51.194;6.840;2022-11-20T12:39:43;57.92;;;25.35;;
18082;SDS011;9168;51.194;6.840;2022-11-20T12:42:21;42.45;;;20.75;;
18082;SDS011;9168;51.194;6.840;2022-11-20T12:48:23;35.13;;;19.87;;
18082;SDS011;9168;51.194;6.840;2022-11-20T12:51:05;37.33;;;20.03;;
18082;SDS011;9168;51.194;6.840;2022-11-20T12:53:45;36.83;;;19.23;;
18082;SDS011;9168;51.194;6.840;2022-11-20T12:56:24;38.73;;;20.23;;
18082;SDS011;9168;51.194;6.840;2022-11-20T12:59:08;38.97;;;19.90;;
18082;SDS011;9168;51.194;6.840;2022-11-20T13:01:50;38.17;;;20.03;;
18082;SDS011;9168;51.194;6.840;2022-11-20T13:04:25;40.30;;;22.07;;
18082;SDS011;9168;51.194;6.840;2022-11-20T13:07:05;42.30;;;22.67;;
18082;SDS011;9168;51.194;6.840;2022-11-20T13:09:36;41.20;;;22.13;;
18082;SDS011;9168;51.194;6.840;2022-11-20T13:12:10;43.47;;;21.50;;
18082;SDS011;9168;51.194;6.840;2022-11-20T13:14:42;48.83;;;24.27;;
18082;SDS011;9168;51.194;6.840;2022-11-20T13:17:17;48.83;;;24.63;;
18082;SDS011;9168;51.194;6.840;2022-11-20T13:19:52;45.03;;;24.53;;
18082;SDS011;9168;51.194;6.840;2022-11-20T13:22:24;48.63;;;23.87;;
18082;SDS011;9168;51.194;6.840;2022-11-20T13:24:51;49.03;;;25.75;;
18082;SDS011;9168;51.194;6.840;2022-11-20T13:27:20;46.00;;;24.00;;
18082;SDS011;9168;51.194;6.840;2022-11-20T13:29:58;45.33;;;24.50;;
18082;SDS011;9168;51.194;6.840;2022-11-20T13:32:28;48.73;;;24.47;;
18082;SDS011;9168;51.194;6.840;2022-11-20T13:34:58;51.70;;;23.50;;
18082;SDS011;9168;51.194;6.840;2022-11-20T13:37:28;49.40;;;25.43;;
18082;SDS011;9168;51.194;6.840;2022-11-20T13:40:19;49.75;;;24.02;;
18082;SDS011;9168;51.194;6.840;2022-11-20T13:42:54;45.77;;;23.73;;
18082;SDS011;9168;51.194;6.840;2022-11-20T13:45:24;45.58;;;22.50;;
18082;SDS011;9168;51.194;6.840;2022-11-20T13:47:52;44.30;;;22.90;;
18082;SDS011;9168;51.194;6.840;2022-11-20T13:50:25;45.07;;;22.93;;
18082;SDS011;9168;51.194;6.840;2022-11-20T13:53:07;45.97;;;23.13;;
18082;SDS011;9168;51.194;6.840;2022-11-20T13:55:47;39.77;;;21.03;;
18082;SDS011;9168;51.194;6.840;2022-11-20T13:58:25;45.03;;;23.17;;
18082;SDS011;9168;51.194;6.840;2022-11-20T14:01:08;40.87;;;21.57;;
18082;SDS011;9168;51.194;6.840;2022-11-20T14:03:37;44.47;;;23.07;;
18082;SDS011;9168;51.194;6.840;2022-11-20T14:06:05;40.27;;;23.03;;
18082;SDS011;9168;51.194;6.840;2022-11-20T14:08:40;44.63;;;22.40;;
18082;SDS011;9168;51.194;6.840;2022-11-20T14:11:15;39.65;;;21.15;;
18082;SDS011;9168;51.194;6.840;2022-11-20T14:13:57;40.78;;;20.17;;
18082;SDS011;9168;51.194;6.840;2022-11-20T14:16:26;47.78;;;21.25;;
18082;SDS011;9168;51.194;6.840;2022-11-20T14:18:54;45.60;;;20.80;;
18082;SDS011;9168;51.194;6.840;2022-11-20T14:21:23;39.23;;;20.67;;
18082;SDS011;9168;51.194;6.840;2022-11-20T14:24:02;38.10;;;19.83;;
18082;SDS011;9168;51.194;6.840;2022-11-20T14:26:30;37.87;;;20.70;;
18082;SDS011;9168;51.194;6.840;2022-11-20T14:28:59;40.73;;;21.03;;
18082;SDS011;9168;51.194;6.840;2022-11-20T14:31:26;39.97;;;20.57;;
18082;SDS011;9168;51.194;6.840;2022-11-20T14:33:55;43.93;;;21.93;;
18082;SDS011;9168;51.194;6.840;2022-11-20T14:36:23;36.78;;;20.52;;
18082;SDS011;9168;51.194;6.840;2022-11-20T14:38:52;38.33;;;19.47;;
18082;SDS011;9168;51.194;6.840;2022-11-20T14:41:20;39.33;;;19.17;;
18082;SDS011;9168;51.194;6.840;2022-11-20T14:43:50;37.05;;;18.98;;
18082;SDS011;9168;51.194;6.840;2022-11-20T14:46:22;34.73;;;18.30;;
18082;SDS011;9168;51.194;6.840;2022-11-20T14:48:50;36.27;;;19.27;;
18082;SDS011;9168;51.194;6.840;2022-11-20T14:51:23;34.25;;;18.92;;
18082;SDS011;9168;51.194;6.840;2022-11-20T14:53:54;35.67;;;19.03;;